createdAt,value
2019-05-10T00:00:28.307Z,20.03
2019-05-10T00:05:50.761Z,19.37
2019-05-10T00:11:05.918Z,18.03
2019-05-10T00:16:09.841Z,19.07
2019-05-10T00:21:13.898Z,19.17
2019-05-10T00:26:17.847Z,19.43
2019-05-10T00:31:21.719Z,21.23
2019-05-10T00:36:25.645Z,18.30
2019-05-10T00:41:29.694Z,20.33
2019-05-10T00:46:33.727Z,20.70
2019-05-10T00:51:38.161Z,22.17
2019-05-10T00:56:42.590Z,21.63
2019-05-10T01:01:48.670Z,23.43
2019-05-10T01:06:56.336Z,22.03
2019-05-10T01:11:59.889Z,22.10
2019-05-10T01:17:04.136Z,23.30
2019-05-10T01:22:08.249Z,24.60
2019-05-10T01:27:12.180Z,25.77
2019-05-10T01:32:16.315Z,25.13
2019-05-10T01:37:20.334Z,21.53
2019-05-10T01:42:24.371Z,20.43
2019-05-10T01:47:28.390Z,24.77
2019-05-10T01:52:32.528Z,23.23
2019-05-10T01:57:36.753Z,26.77
2019-05-10T02:02:41.078Z,26.77
2019-05-10T02:07:45.625Z,25.60
2019-05-10T02:12:49.848Z,25.53
2019-05-10T02:17:54.148Z,26.27
2019-05-10T02:22:58.216Z,28.67
2019-05-10T02:28:02.444Z,31.27
2019-05-10T02:33:06.480Z,30.57
2019-05-10T02:38:10.715Z,31.70
2019-05-10T02:43:14.921Z,31.67
2019-05-10T02:48:18.963Z,33.77
2019-05-10T02:53:23.806Z,36.07
2019-05-10T02:58:27.972Z,34.07
2019-05-10T03:03:33.546Z,35.83
2019-05-10T03:08:51.573Z,36.57
2019-05-10T03:13:57.116Z,33.27
2019-05-10T03:19:03.125Z,34.30
2019-05-10T03:24:07.087Z,34.43
2019-05-10T03:29:11.949Z,39.30
2019-05-10T03:34:17.829Z,35.57
2019-05-10T03:39:22.079Z,34.27
2019-05-10T03:44:26.119Z,33.60
2019-05-10T03:49:30.086Z,35.17
2019-05-10T03:54:34.243Z,35.40
2019-05-10T03:59:38.148Z,35.20
2019-05-10T04:04:42.209Z,39.73
2019-05-10T04:09:46.231Z,41.57
2019-05-10T04:14:50.360Z,43.00
2019-05-10T04:19:54.602Z,35.57
2019-05-10T04:24:58.615Z,41.77
2019-05-10T04:30:02.644Z,40.57
2019-05-10T04:35:07.776Z,41.90
2019-05-10T04:40:12.040Z,43.53
2019-05-10T04:45:16.458Z,39.27
2019-05-10T04:50:20.495Z,42.97
2019-05-10T04:55:24.605Z,38.30
2019-05-10T05:00:28.645Z,45.77
2019-05-10T05:05:32.681Z,44.10
2019-05-10T05:10:36.695Z,42.63
2019-05-10T05:15:40.720Z,44.40
2019-05-10T05:20:44.755Z,38.57
2019-05-10T05:25:48.761Z,40.30
2019-05-10T05:30:53.008Z,38.90
2019-05-10T05:35:57.131Z,36.37
2019-05-10T05:41:02.299Z,36.47
2019-05-10T05:46:06.317Z,36.43
2019-05-10T05:51:10.340Z,36.93
2019-05-10T05:56:14.768Z,44.87
2019-05-10T06:01:26.168Z,61.10
2019-05-10T06:06:24.772Z,53.23
2019-05-10T06:11:29.877Z,48.60
2019-05-10T06:16:34.575Z,37.70
2019-05-10T06:21:38.592Z,40.27
2019-05-10T06:26:42.836Z,33.07
2019-05-10T06:31:46.960Z,29.47
2019-05-10T06:36:51.387Z,30.03
2019-05-10T06:41:56.007Z,20.77
2019-05-10T06:47:02.043Z,28.07
2019-05-10T06:52:06.603Z,21.60
2019-05-10T06:57:11.094Z,24.70
2019-05-10T07:02:20.202Z,23.87
2019-05-10T07:07:42.619Z,20.97
2019-05-10T07:12:30.189Z,14.98
2019-05-10T07:17:41.374Z,20.50
2019-05-10T07:22:40.224Z,17.40
2019-05-10T07:27:44.341Z,19.97
2019-05-10T07:32:48.999Z,17.83
2019-05-10T07:37:54.160Z,19.10
2019-05-10T07:42:58.279Z,21.33
2019-05-10T07:48:07.511Z,24.37
2019-05-10T07:53:08.280Z,19.63
2019-05-10T07:58:12.217Z,17.20
2019-05-10T08:03:23.484Z,16.90
2019-05-10T08:08:23.551Z,16.83
2019-05-10T08:13:28.423Z,19.40
2019-05-10T08:18:33.740Z,18.33
2019-05-10T08:23:37.876Z,18.27
2019-05-10T08:28:44.586Z,18.10
2019-05-10T08:33:56.237Z,18.03
2019-05-10T08:39:03.433Z,19.87
2019-05-10T08:43:58.912Z,16.50
2019-05-10T08:49:03.019Z,13.50
2019-05-10T08:54:07.150Z,14.97
2019-05-10T08:59:16.351Z,14.90
2019-05-10T09:04:16.803Z,13.30
2019-05-10T09:09:22.796Z,14.83
2019-05-10T09:14:26.660Z,11.10
2019-05-10T09:19:37.355Z,11.97
2019-05-10T09:24:43.124Z,11.10
2019-05-10T09:29:43.078Z,11.00
2019-05-10T09:34:47.556Z,15.87
2019-05-10T09:39:55.397Z,13.83
2019-05-10T09:44:57.518Z,16.27
2019-05-10T09:50:02.256Z,13.07
2019-05-10T09:55:10.147Z,17.33
2019-05-10T10:00:13.237Z,20.03
2019-05-10T10:05:17.980Z,17.73
2019-05-10T10:10:29.395Z,17.43
2019-05-10T10:15:33.666Z,18.93
2019-05-10T10:20:35.931Z,17.87
2019-05-10T10:25:42.209Z,15.60
2019-05-10T10:30:50.410Z,14.67
2019-05-10T10:35:56.459Z,14.95
2019-05-10T10:40:57.756Z,11.70
2019-05-10T10:46:01.975Z,12.40
2019-05-10T10:51:08.076Z,11.30
2019-05-10T10:56:12.044Z,10.85
2019-05-10T11:01:21.384Z,10.93
2019-05-10T11:06:21.886Z,11.25
2019-05-10T11:11:30.503Z,11.00
2019-05-10T11:16:31.329Z,10.53
2019-05-10T11:21:35.236Z,12.90
2019-05-10T11:26:44.688Z,11.90
2019-05-10T11:32:07.042Z,10.23
2019-05-10T11:36:53.907Z,12.95
2019-05-10T11:42:02.014Z,12.00
2019-05-10T11:47:03.588Z,12.13
2019-05-10T11:52:09.975Z,11.90
2019-05-10T11:57:14.198Z,12.37
2019-05-10T12:02:37.107Z,13.15
2019-05-10T12:17:35.436Z,12.00
2019-05-10T12:22:46.386Z,11.93
2019-05-10T12:26:18.978Z,19.82
2019-05-10T12:26:49.963Z,20.52
2019-05-10T12:27:48.908Z,11.90
2019-05-10T12:32:56.313Z,12.47
2019-05-10T12:37:56.352Z,12.25
2019-05-10T12:43:00.988Z,12.45
2019-05-10T12:48:05.221Z,12.15
2019-05-10T12:53:15.276Z,10.50
2019-05-10T12:58:14.909Z,11.83
2019-05-10T13:03:19.697Z,10.72
2019-05-10T13:08:24.099Z,10.88
2019-05-10T13:13:30.069Z,11.00
2019-05-10T13:18:49.713Z,9.70
2019-05-10T13:23:39.224Z,9.53
2019-05-10T13:28:43.375Z,10.20
2019-05-10T13:33:47.264Z,15.00
2019-05-10T13:38:51.324Z,11.25
2019-05-10T13:43:58.902Z,11.95
2019-05-10T13:49:01.430Z,13.13
2019-05-10T13:54:05.613Z,11.78
2019-05-10T13:59:17.903Z,10.82
2019-05-10T14:04:15.631Z,11.45
2019-05-10T14:09:21.027Z,10.23
2019-05-10T14:14:26.691Z,16.25
2019-05-10T14:19:31.087Z,12.40
2019-05-10T14:24:35.458Z,10.68
2019-05-10T14:29:39.892Z,9.68
2019-05-10T14:34:44.580Z,10.53
2019-05-10T14:39:50.303Z,10.28
2019-05-10T14:44:54.328Z,10.63
2019-05-10T14:49:58.343Z,10.03
2019-05-10T14:55:02.488Z,10.80
2019-05-10T15:00:08.269Z,10.95
2019-05-10T15:05:15.816Z,12.65
2019-05-10T15:10:18.278Z,10.55
2019-05-10T15:15:22.596Z,13.48
2019-05-10T15:20:26.916Z,10.18
2019-05-10T15:25:30.948Z,12.43
2019-05-10T15:30:39.391Z,12.63
2019-05-10T15:35:45.845Z,13.68
2019-05-10T15:40:46.412Z,13.78
2019-05-10T15:45:55.022Z,23.55
2019-05-10T15:50:55.851Z,19.40
2019-05-10T15:56:03.914Z,61.10
2019-05-10T16:01:05.332Z,15.08
2019-05-10T16:06:09.222Z,15.32
2019-05-10T16:11:18.727Z,12.82
2019-05-10T16:16:18.986Z,13.93
2019-05-10T16:21:22.861Z,14.47
2019-05-10T16:26:27.247Z,16.55
2019-05-10T16:31:31.449Z,18.92
2019-05-10T16:36:35.702Z,15.23
2019-05-10T16:41:39.964Z,15.25
2019-05-10T16:46:43.831Z,16.90
2019-05-10T16:51:49.840Z,16.40
2019-05-10T16:56:59.408Z,16.70
2019-05-10T17:02:04.501Z,16.37
2019-05-10T17:07:04.547Z,15.65
2019-05-10T17:12:08.458Z,16.40
2019-05-10T17:17:12.357Z,16.90
2019-05-10T17:22:16.457Z,17.32
2019-05-10T17:27:20.819Z,20.15
2019-05-10T17:32:26.707Z,65.97
2019-05-10T17:37:35.777Z,56.68
2019-05-10T17:42:41.255Z,26.30
2019-05-10T17:47:41.984Z,26.80
2019-05-10T17:52:45.926Z,29.80
2019-05-10T17:57:54.918Z,21.90
2019-05-10T18:02:57.005Z,18.80
2019-05-10T18:08:01.420Z,19.67
2019-05-10T18:13:05.661Z,39.38
2019-05-10T18:18:09.762Z,51.25
2019-05-10T18:23:20.529Z,23.55
2019-05-10T18:28:21.619Z,23.55
2019-05-10T18:33:25.213Z,29.07
2019-05-10T18:38:30.784Z,31.85
2019-05-10T18:43:35.402Z,26.50
2019-05-10T18:48:41.155Z,29.35
2019-05-10T18:53:45.414Z,34.10
2019-05-10T18:58:49.446Z,31.70
2019-05-10T19:03:53.362Z,42.73
2019-05-10T19:08:57.490Z,37.90
2019-05-10T19:14:04.638Z,34.93
2019-05-10T19:19:07.192Z,32.80
2019-05-10T19:24:11.206Z,37.70
2019-05-10T19:29:15.339Z,31.83
2019-05-10T19:34:19.358Z,29.20
2019-05-10T19:39:23.265Z,31.90
2019-05-10T19:44:27.307Z,37.07
2019-05-10T19:49:31.349Z,34.57
2019-05-10T19:54:35.469Z,31.03
2019-05-10T19:59:43.933Z,33.23
2019-05-10T20:04:45.153Z,28.10
2019-05-10T20:09:49.196Z,26.17
2019-05-10T20:14:53.217Z,25.77
2019-05-10T20:19:57.134Z,27.43
2019-05-10T20:25:01.151Z,25.60
2019-05-10T20:30:06.728Z,26.17
2019-05-10T20:35:10.953Z,30.83
2019-05-10T20:40:15.242Z,33.63
2019-05-10T20:45:19.320Z,32.60
2019-05-10T20:50:23.340Z,32.27
2019-05-10T20:55:27.364Z,32.33
2019-05-10T21:00:31.389Z,30.40
2019-05-10T21:05:35.516Z,27.93
2019-05-10T21:10:39.548Z,31.07
2019-05-10T21:15:43.679Z,32.87
2019-05-10T21:20:47.691Z,31.93
2019-05-10T21:25:51.727Z,31.43
2019-05-10T21:30:55.753Z,32.07
2019-05-10T21:35:59.774Z,31.23
2019-05-10T21:41:03.806Z,29.43
2019-05-10T21:46:07.833Z,31.43
2019-05-10T21:51:11.861Z,32.03
2019-05-10T21:56:15.881Z,30.73
2019-05-10T22:01:19.904Z,30.17
2019-05-10T22:06:24.651Z,28.77
2019-05-10T22:11:29.093Z,29.47
2019-05-10T22:16:53.927Z,34.43
2019-05-10T22:21:57.934Z,48.53
2019-05-10T22:27:02.104Z,73.00
2019-05-10T22:32:06.181Z,94.87
2019-05-10T22:37:10.215Z,83.83
2019-05-10T22:42:14.456Z,115.30
2019-05-10T22:47:18.571Z,96.53
2019-05-10T22:52:22.598Z,47.17
2019-05-10T22:57:26.619Z,60.43
2019-05-10T23:02:30.653Z,84.17
2019-05-10T23:07:34.672Z,70.80
2019-05-10T23:12:38.697Z,57.63
2019-05-10T23:17:42.721Z,82.17
2019-05-10T23:22:46.750Z,71.53
2019-05-10T23:27:50.789Z,75.33
2019-05-10T23:32:54.803Z,83.27
2019-05-10T23:37:59.140Z,74.90
2019-05-10T23:43:03.166Z,68.23
2019-05-10T23:48:07.394Z,72.37
2019-05-10T23:53:11.826Z,71.93
2019-05-10T23:58:16.057Z,74.30
